Time;durP1;ratioP1;P1;durP2;ratioP2;P2;SDS_P1;SDS_P2;PMS_P1;PMS_P2;Temp;Humidity;BMP_temperature;BMP_pressure;BME280_temperature;BME280_humidity;BME280_pressure;Samples;Min_cycle;Max_cycle;Signal;HPM_P1;HPM_P2
2021/08/18 00:00:57;;;;;;;18.87;10.50;;;14.20;99.90;;;;;;6265380;22;20224;-90
2021/08/18 00:03:22;;;;;;;14.07;9.83;;;14.30;99.90;;;;;;6260983;22;20216;-90
2021/08/18 00:05:48;;;;;;;15.00;10.00;;;14.30;99.90;;;;;;6259815;22;20200;-90
2021/08/18 00:08:14;;;;;;;15.57;10.40;;;14.30;99.90;;;;;;6263027;22;20549;-91
2021/08/18 00:10:41;;;;;;;15.33;10.10;;;14.40;99.90;;;;;;6261569;22;20738;-90
2021/08/18 00:13:10;;;;;;;16.23;10.47;;;14.40;99.90;;;;;;6262452;22;20770;-91
2021/08/18 00:15:36;;;;;;;15.77;9.20;;;14.40;99.90;;;;;;6265495;22;20438;-91
2021/08/18 00:18:03;;;;;;;17.07;10.73;;;14.40;99.90;;;;;;6239486;22;20721;-91
2021/08/18 00:20:30;;;;;;;16.40;10.30;;;14.30;99.90;;;;;;6265073;22;20397;-92
2021/08/18 00:22:57;;;;;;;16.53;11.17;;;14.30;99.90;;;;;;6263343;22;20400;-92
2021/08/18 00:25:25;;;;;;;16.07;10.60;;;14.30;99.90;;;;;;6263874;22;20389;-91
2021/08/18 00:27:52;;;;;;;15.70;9.63;;;14.30;99.90;;;;;;6262952;22;20397;-91
2021/08/18 00:30:17;;;;;;;17.00;9.87;;;14.40;99.90;;;;;;6236666;22;20735;-91
2021/08/18 00:32:44;;;;;;;15.70;10.00;;;14.30;99.90;;;;;;6264299;22;20746;-91
2021/08/18 00:35:10;;;;;;;16.67;10.33;;;14.30;99.90;;;;;;6263743;22;20194;-91
2021/08/18 00:37:36;;;;;;;20.00;10.80;;;14.30;99.90;;;;;;6261099;22;20396;-91
2021/08/18 00:40:02;;;;;;;16.27;9.43;;;14.30;99.90;;;;;;6263759;22;20162;-90
2021/08/18 00:42:28;;;;;;;16.47;9.73;;;14.40;99.90;;;;;;6261677;22;20158;-90
2021/08/18 00:44:55;;;;;;;16.67;10.27;;;14.30;99.90;;;;;;6238756;22;20471;-90
2021/08/18 00:47:22;;;;;;;17.63;10.90;;;14.40;99.90;;;;;;6262235;22;20448;-91
2021/08/18 00:49:47;;;;;;;14.97;9.40;;;14.30;99.90;;;;;;6236653;22;20871;-90
2021/08/18 00:52:13;;;;;;;19.97;10.23;;;14.30;99.90;;;;;;6261480;22;20500;-91
2021/08/18 00:54:39;;;;;;;14.90;9.70;;;14.40;99.90;;;;;;6265079;22;20506;-91
2021/08/18 00:57:06;;;;;;;16.13;11.07;;;14.30;99.90;;;;;;6261858;22;20184;-91
2021/08/18 00:59:33;;;;;;;13.80;9.40;;;14.30;99.90;;;;;;6208470;23;20163;-91
2021/08/18 01:01:59;;;;;;;13.77;9.83;;;14.30;99.90;;;;;;6205839;23;20406;-91
2021/08/18 01:04:25;;;;;;;17.03;10.00;;;14.30;99.90;;;;;;6207214;23;20536;-91
2021/08/18 01:06:51;;;;;;;13.30;9.77;;;14.30;99.90;;;;;;6206183;23;20461;-91
2021/08/18 01:09:19;;;;;;;13.63;9.13;;;14.30;99.90;;;;;;6208065;23;20404;-91
2021/08/18 01:11:48;;;;;;;15.13;10.13;;;14.40;99.90;;;;;;6181551;23;20163;-91
2021/08/18 01:14:14;;;;;;;13.63;8.90;;;14.30;99.90;;;;;;6207690;23;20402;-89
2021/08/18 01:16:42;;;;;;;15.10;9.60;;;14.30;99.90;;;;;;6207121;23;20520;-92
2021/08/18 01:19:08;;;;;;;14.90;9.77;;;14.30;99.90;;;;;;6183259;23;20402;-91
2021/08/18 01:21:36;;;;;;;16.60;10.20;;;14.30;99.90;;;;;;6208348;23;20685;-91
2021/08/18 01:24:02;;;;;;;15.70;10.73;;;14.30;99.90;;;;;;6207367;23;20432;-94
2021/08/18 01:26:39;;;;;;;14.47;9.50;;;14.30;99.90;;;;;;6209153;23;20443;-94
2021/08/18 01:29:05;;;;;;;13.83;9.57;;;14.30;99.90;;;;;;6208862;23;21092;-94
2021/08/18 01:31:31;;;;;;;17.90;10.57;;;14.40;99.90;;;;;;6209303;23;20424;-93
2021/08/18 01:34:02;;;;;;;15.03;10.30;;;14.30;99.90;;;;;;6207716;23;20689;-93
2021/08/18 01:36:29;;;;;;;13.30;9.57;;;14.30;99.90;;;;;;6234383;23;20207;-93
2021/08/18 01:39:03;;;;;;;14.03;9.50;;;14.30;99.90;;;;;;6183179;23;20727;-93
2021/08/18 01:41:28;;;;;;;15.00;9.80;;;14.40;99.90;;;;;;6207614;23;20453;-93
2021/08/18 01:43:55;;;;;;;15.23;9.80;;;14.30;99.90;;;;;;6207387;23;20406;-93
2021/08/18 01:46:20;;;;;;;14.87;9.87;;;14.30;99.90;;;;;;6208404;23;20167;-93
2021/08/18 01:48:46;;;;;;;15.43;10.20;;;14.30;99.90;;;;;;6208281;23;20398;-94
2021/08/18 01:51:12;;;;;;;15.30;10.10;;;14.40;99.90;;;;;;6208109;23;20493;-93
2021/08/18 01:53:43;;;;;;;14.13;9.53;;;14.40;99.90;;;;;;6209438;23;20624;-94
2021/08/18 01:56:12;;;;;;;15.30;10.47;;;14.40;99.90;;;;;;6209135;23;20200;-93
2021/08/18 01:58:39;;;;;;;14.67;10.17;;;14.40;99.90;;;;;;6229210;22;20566;-92
2021/08/18 02:01:06;;;;;;;16.77;9.30;;;14.30;99.90;;;;;;6263476;22;20441;-93
2021/08/18 02:03:33;;;;;;;14.00;10.87;;;14.30;99.90;;;;;;6264636;22;20720;-93
2021/08/18 02:06:19;;;;;;;14.90;10.20;;;14.30;99.90;;;;;;6265712;22;20428;-93
2021/08/18 02:09:04;;;;;;;15.63;10.37;;;14.30;99.90;;;;;;6236343;22;20392;-92
2021/08/18 02:11:30;;;;;;;15.03;10.40;;;14.40;99.90;;;;;;6262406;22;20443;-92
2021/08/18 02:13:55;;;;;;;14.40;10.10;;;14.40;99.90;;;;;;6263528;22;20551;-90
2021/08/18 02:16:39;;;;;;;13.50;8.90;;;14.40;99.90;;;;;;6262911;22;20232;-91
2021/08/18 02:19:04;;;;;;;14.57;10.27;;;14.40;99.90;;;;;;6237673;22;20162;-91
2021/08/18 02:21:50;;;;;;;17.03;10.97;;;14.40;99.90;;;;;;6263243;22;20461;-92
2021/08/18 02:24:18;;;;;;;15.67;9.83;;;14.30;99.90;;;;;;6236712;22;20178;-91
2021/08/18 02:26:44;;;;;;;15.10;10.70;;;14.30;99.90;;;;;;6261650;22;20867;-91
2021/08/18 02:29:21;;;;;;;16.47;10.47;;;14.30;99.90;;;;;;6265141;22;20530;-89
2021/08/18 02:31:58;;;;;;;15.43;10.30;;;14.30;99.90;;;;;;6265948;22;20512;-91
2021/08/18 02:34:24;;;;;;;15.67;10.47;;;14.30;99.90;;;;;;6264132;22;20393;-91
2021/08/18 02:37:04;;;;;;;16.63;11.47;;;14.30;99.90;;;;;;6263649;22;20531;-91
2021/08/18 02:39:30;;;;;;;18.43;10.83;;;14.30;99.90;;;;;;6264792;22;20592;-91
2021/08/18 02:41:55;;;;;;;17.00;10.90;;;14.30;99.90;;;;;;6264581;22;20408;-92
2021/08/18 02:44:21;;;;;;;16.10;9.87;;;14.20;99.90;;;;;;6266357;22;20162;-91
2021/08/18 02:47:07;;;;;;;20.83;12.33;;;14.20;99.90;;;;;;6264507;22;20166;-92
2021/08/18 02:49:44;;;;;;;15.03;10.67;;;14.20;99.90;;;;;;6238745;22;20188;-92
2021/08/18 02:52:10;;;;;;;16.10;9.97;;;14.20;99.90;;;;;;6264258;22;20400;-93
2021/08/18 02:54:55;;;;;;;15.30;11.33;;;14.20;99.90;;;;;;6265712;22;20469;-92
2021/08/18 02:59:52;;;;;;;17.57;11.60;;;14.20;99.90;;;;;;6235144;23;20470;-93
2021/08/18 03:02:25;;;;;;;15.63;10.40;;;14.20;99.90;;;;;;6210175;23;20433;-92
2021/08/18 03:05:00;;;;;;;17.80;11.83;;;14.20;99.90;;;;;;6209342;23;20205;-92
2021/08/18 03:07:26;;;;;;;16.87;10.60;;;14.20;99.90;;;;;;6208032;23;20802;-92
2021/08/18 03:09:51;;;;;;;18.97;11.70;;;14.20;99.90;;;;;;6208903;23;20421;-92
2021/08/18 03:15:42;;;;;;;14.37;10.00;;;14.20;99.90;;;;;;6237758;23;20194;-93
2021/08/18 03:18:08;;;;;;;14.23;10.83;;;14.10;99.90;;;;;;6207545;23;20747;-93
2021/08/18 03:20:33;;;;;;;16.47;11.20;;;14.10;99.90;;;;;;6207983;23;20485;-92
2021/08/18 03:23:00;;;;;;;17.87;11.10;;;14.10;99.90;;;;;;6209666;23;20163;-93
2021/08/18 03:25:25;;;;;;;19.07;11.50;;;14.10;99.90;;;;;;6207295;23;20246;-93
2021/08/18 03:27:51;;;;;;;18.13;12.17;;;14.20;99.90;;;;;;6208960;23;20424;-92
2021/08/18 03:30:17;;;;;;;20.10;12.10;;;14.20;99.90;;;;;;6209701;23;20175;-92
2021/08/18 03:32:42;;;;;;;17.00;11.23;;;14.20;99.90;;;;;;6210261;23;20311;-92
2021/08/18 03:35:08;;;;;;;18.73;11.90;;;14.20;99.90;;;;;;6208472;23;20194;-93
2021/08/18 03:37:34;;;;;;;17.70;11.07;;;14.20;99.90;;;;;;6208631;23;20483;-92
2021/08/18 03:40:00;;;;;;;18.90;12.20;;;14.20;99.90;;;;;;6209875;23;20878;-91
2021/08/18 03:42:26;;;;;;;15.67;11.60;;;14.20;99.90;;;;;;6237047;23;20551;-92
2021/08/18 03:44:51;;;;;;;15.17;11.23;;;14.20;99.90;;;;;;6210316;23;20161;-91
2021/08/18 03:47:17;;;;;;;19.73;11.80;;;14.20;99.90;;;;;;6211421;23;20173;-90
2021/08/18 03:49:42;;;;;;;18.30;10.83;;;14.20;99.90;;;;;;6209042;23;20167;-91
2021/08/18 03:52:08;;;;;;;17.83;12.27;;;14.20;99.90;;;;;;6207518;23;20174;-91
2021/08/18 03:54:34;;;;;;;15.10;10.77;;;14.20;99.90;;;;;;6206262;23;20186;-90
2021/08/18 03:57:00;;;;;;;19.57;11.47;;;14.20;99.90;;;;;;6208139;22;20655;-94
2021/08/18 03:59:25;;;;;;;19.10;10.47;;;14.20;99.90;;;;;;6215309;23;20197;-94
2021/08/18 04:01:51;;;;;;;19.80;11.77;;;14.20;99.90;;;;;;6209476;23;20241;-94
2021/08/18 04:04:17;;;;;;;15.50;11.27;;;14.20;99.90;;;;;;6210169;23;20238;-96
2021/08/18 04:06:43;;;;;;;20.37;12.03;;;14.20;99.90;;;;;;6209242;23;20332;-94
2021/08/18 04:09:21;;;;;;;16.70;11.67;;;14.10;99.90;;;;;;6210235;23;20163;-93
2021/08/18 04:11:46;;;;;;;21.13;11.40;;;14.10;99.90;;;;;;6210068;23;20476;-93
2021/08/18 04:14:25;;;;;;;16.50;11.00;;;14.10;99.90;;;;;;6211206;23;20790;-94
2021/08/18 04:16:51;;;;;;;15.37;11.27;;;14.10;99.90;;;;;;6212985;23;20216;-94
2021/08/18 04:19:16;;;;;;;18.43;11.23;;;14.10;99.90;;;;;;6212856;23;20836;-96
2021/08/18 04:21:42;;;;;;;17.20;10.87;;;14.10;99.90;;;;;;6210543;23;20163;-91
2021/08/18 04:24:08;;;;;;;17.20;10.93;;;14.10;99.90;;;;;;6234115;23;20470;-90
2021/08/18 04:26:33;;;;;;;16.87;10.40;;;14.10;99.90;;;;;;6210349;23;20163;-91
2021/08/18 04:29:02;;;;;;;12.53;10.10;;;14.10;99.90;;;;;;6214028;23;20189;-93
2021/08/18 04:31:28;;;;;;;17.07;10.60;;;14.10;99.90;;;;;;6211896;23;20159;-93
2021/08/18 04:34:05;;;;;;;15.73;10.33;;;14.10;99.90;;;;;;6209347;23;20712;-91
2021/08/18 04:36:46;;;;;;;18.07;11.60;;;14.10;99.90;;;;;;6236902;23;20167;-89
2021/08/18 04:39:14;;;;;;;19.03;11.87;;;14.10;99.90;;;;;;6210639;23;20404;-94
2021/08/18 04:41:39;;;;;;;20.47;11.73;;;14.10;99.90;;;;;;6208376;23;20194;-92
2021/08/18 04:44:06;;;;;;;18.70;12.13;;;14.20;99.90;;;;;;6207309;23;20860;-93
2021/08/18 04:46:32;;;;;;;19.20;11.43;;;14.20;99.90;;;;;;6209251;23;20525;-92
2021/08/18 04:48:57;;;;;;;18.07;11.53;;;14.20;99.90;;;;;;6210369;23;20401;-94
2021/08/18 04:51:26;;;;;;;17.83;10.97;;;14.20;99.90;;;;;;6208400;23;20167;-91
2021/08/18 04:53:52;;;;;;;21.00;11.80;;;14.30;99.90;;;;;;6206228;23;20171;-93
2021/08/18 04:56:17;;;;;;;19.90;11.23;;;14.30;99.90;;;;;;6209120;23;20438;-90
2021/08/18 04:58:43;;;;;;;26.70;23.60;;;14.30;99.90;;;;;;6206020;22;20182;-89
2021/08/18 05:01:09;;;;;;;17.63;11.70;;;14.30;99.90;;;;;;6207041;23;20173;-90
2021/08/18 05:03:34;;;;;;;18.73;11.67;;;14.40;99.90;;;;;;6208526;23;20166;-90
2021/08/18 05:06:00;;;;;;;14.67;10.53;;;14.50;99.90;;;;;;6208201;23;20472;-90
2021/08/18 05:08:26;;;;;;;16.53;10.60;;;14.40;99.90;;;;;;6208026;23;20174;-89
2021/08/18 05:10:52;;;;;;;16.80;12.00;;;14.40;99.90;;;;;;6210207;23;20186;-89
2021/08/18 05:13:18;;;;;;;19.07;11.57;;;14.50;99.90;;;;;;6207117;23;20737;-88
2021/08/18 05:15:44;;;;;;;16.20;12.50;;;14.40;99.90;;;;;;6209985;23;20633;-89
2021/08/18 05:18:34;;;;;;;17.23;11.23;;;14.40;99.90;;;;;;6209244;23;20194;-90
2021/08/18 05:21:01;;;;;;;19.90;12.20;;;14.40;99.90;;;;;;6203155;23;20397;-89
2021/08/18 05:23:27;;;;;;;23.73;12.50;;;14.40;99.90;;;;;;6209432;23;20398;-89
2021/08/18 05:25:52;;;;;;;18.23;12.53;;;14.40;99.90;;;;;;6208555;23;20548;-89
2021/08/18 05:28:19;;;;;;;16.30;11.63;;;14.40;99.90;;;;;;6209314;23;20590;-89
2021/08/18 05:30:44;;;;;;;22.60;12.87;;;14.40;99.90;;;;;;6208576;23;20166;-89
2021/08/18 05:33:11;;;;;;;18.33;11.80;;;14.50;99.90;;;;;;6208501;23;20398;-89
2021/08/18 05:35:37;;;;;;;18.17;13.10;;;14.40;99.90;;;;;;6208739;23;20186;-90
2021/08/18 05:38:02;;;;;;;16.60;12.90;;;14.40;99.90;;;;;;6206909;23;20401;-88
2021/08/18 05:40:28;;;;;;;18.63;12.30;;;14.50;99.90;;;;;;6207999;23;20185;-89
2021/08/18 05:42:54;;;;;;;20.20;12.40;;;14.50;99.90;;;;;;6210239;23;20496;-89
2021/08/18 05:45:21;;;;;;;19.70;12.87;;;14.50;99.90;;;;;;6212146;23;20194;-91
2021/08/18 05:47:49;;;;;;;18.60;12.30;;;14.50;99.90;;;;;;6238322;23;20166;-90
2021/08/18 05:50:15;;;;;;;20.07;12.10;;;14.50;99.90;;;;;;6209553;23;20436;-89
2021/08/18 05:52:41;;;;;;;17.77;11.80;;;14.50;99.90;;;;;;6211362;23;20389;-91
2021/08/18 05:55:07;;;;;;;15.83;11.90;;;14.60;99.90;;;;;;6210383;23;20441;-89
2021/08/18 05:57:34;;;;;;;17.90;12.53;;;14.60;99.90;;;;;;6211223;23;20417;-89
2021/08/18 06:00:00;;;;;;;19.33;12.27;;;14.60;99.90;;;;;;6210538;23;20406;-91
2021/08/18 06:02:27;;;;;;;16.20;12.30;;;14.60;99.90;;;;;;6210491;23;20931;-90
2021/08/18 06:04:53;;;;;;;17.80;11.77;;;14.60;99.90;;;;;;6212398;23;20926;-89
2021/08/18 06:07:18;;;;;;;15.03;11.10;;;14.70;99.90;;;;;;6211221;23;20397;-85
2021/08/18 06:09:44;;;;;;;17.10;11.53;;;14.80;99.90;;;;;;6210640;23;20162;-85
2021/08/18 06:12:10;;;;;;;16.63;11.67;;;15.10;99.90;;;;;;6211954;23;20167;-85
2021/08/18 06:14:36;;;;;;;18.27;11.93;;;15.20;99.90;;;;;;6200392;23;20632;-84
2021/08/18 06:17:01;;;;;;;17.30;12.60;;;15.50;99.90;;;;;;6234787;23;20162;-83
2021/08/18 06:19:27;;;;;;;18.37;12.00;;;15.40;99.90;;;;;;6208500;23;20457;-84
2021/08/18 06:21:53;;;;;;;16.43;11.07;;;15.30;99.90;;;;;;6208043;23;20490;-84
2021/08/18 06:27:03;;;;;;;14.50;10.87;;;15.40;99.90;;;;;;6236187;23;20277;-85
2021/08/18 06:29:32;;;;;;;16.60;11.00;;;15.60;99.90;;;;;;6208152;23;20404;-84
2021/08/18 06:31:57;;;;;;;17.23;11.90;;;15.50;99.90;;;;;;6236664;23;20436;-84
2021/08/18 06:34:23;;;;;;;16.07;11.60;;;15.40;99.90;;;;;;6207917;23;20413;-83
2021/08/18 06:36:49;;;;;;;16.77;11.53;;;15.40;99.90;;;;;;6210050;23;20589;-85
2021/08/18 06:39:16;;;;;;;17.43;10.93;;;15.60;99.90;;;;;;6210211;23;20166;-93
2021/08/18 06:41:41;;;;;;;15.83;11.37;;;15.60;99.90;;;;;;6208344;23;20175;-89
2021/08/18 06:44:07;;;;;;;15.40;10.40;;;15.50;99.90;;;;;;6209990;23;20400;-93
2021/08/18 06:46:33;;;;;;;14.00;10.33;;;15.50;99.90;;;;;;6208933;23;20277;-92
2021/08/18 06:48:59;;;;;;;14.83;9.90;;;15.60;99.90;;;;;;6209180;23;20163;-94
2021/08/18 06:51:24;;;;;;;16.20;10.83;;;15.50;99.90;;;;;;6233970;23;20238;-91
2021/08/18 06:53:50;;;;;;;11.77;10.20;;;15.60;99.90;;;;;;6206513;23;20839;-89
2021/08/18 06:56:15;;;;;;;17.63;11.20;;;15.90;99.90;;;;;;6206375;23;20834;-89
2021/08/18 06:58:45;;;;;;;15.77;9.90;;;16.00;99.90;;;;;;6208947;23;20178;-90
2021/08/18 07:01:11;;;;;;;11.83;9.20;;;15.90;99.90;;;;;;6234117;23;20441;-92
2021/08/18 07:03:37;;;;;;;14.20;9.13;;;16.00;99.90;;;;;;6234216;23;20378;-96
2021/08/18 07:06:05;;;;;;;12.03;8.87;;;16.10;99.90;;;;;;6235422;23;20173;-91
2021/08/18 07:08:31;;;;;;;16.10;10.50;;;16.10;99.90;;;;;;6234239;23;20582;-93
2021/08/18 07:10:56;;;;;;;16.80;9.60;;;16.20;99.90;;;;;;6206809;23;21538;-93
2021/08/18 07:13:22;;;;;;;13.23;10.27;;;16.20;99.90;;;;;;6233425;23;20231;-92
2021/08/18 07:15:48;;;;;;;11.67;9.10;;;16.30;99.90;;;;;;6210720;23;20285;-92
2021/08/18 07:18:13;;;;;;;13.40;9.27;;;16.40;99.90;;;;;;6246672;23;21044;-96
2021/08/18 07:20:39;;;;;;;11.17;8.60;;;16.30;99.90;;;;;;6258605;23;20147;-96
2021/08/18 07:23:05;;;;;;;14.63;9.63;;;16.30;99.90;;;;;;6243981;23;20619;-95
2021/08/18 07:25:31;;;;;;;10.47;8.50;;;16.40;99.90;;;;;;6242027;23;20174;-96
2021/08/18 07:28:08;;;;;;;11.13;9.30;;;16.40;99.90;;;;;;6233378;23;20166;-94
2021/08/18 07:30:34;;;;;;;12.60;9.23;;;16.40;99.90;;;;;;6211150;23;20397;-96
2021/08/18 07:33:00;;;;;;;13.30;8.33;;;16.50;99.90;;;;;;6249945;23;20381;-96
2021/08/18 07:35:26;;;;;;;12.03;8.57;;;16.60;99.90;;;;;;6251958;22;20266;-91
2021/08/18 07:37:51;;;;;;;11.50;8.47;;;16.50;99.90;;;;;;6321875;22;20632;-92
2021/08/18 07:40:18;;;;;;;12.30;8.10;;;16.50;99.90;;;;;;6319101;22;20488;-88
2021/08/18 07:42:44;;;;;;;9.33;7.37;;;16.50;99.90;;;;;;6317585;22;20161;-90
2021/08/18 07:45:10;;;;;;;12.00;7.40;;;16.70;99.90;;;;;;6320665;22;20871;-91
2021/08/18 07:47:36;;;;;;;12.40;8.07;;;16.60;99.90;;;;;;6321072;22;20471;-86
2021/08/18 07:50:03;;;;;;;12.47;8.10;;;16.60;99.90;;;;;;6292075;22;20392;-90
2021/08/18 07:52:29;;;;;;;11.90;7.43;;;16.70;99.90;;;;;;6294942;22;20640;-87
2021/08/18 07:54:55;;;;;;;10.43;6.50;;;16.90;99.90;;;;;;6321981;22;20545;-87
2021/08/18 07:57:20;;;;;;;8.53;6.70;;;17.00;99.90;;;;;;6321652;22;20166;-87
2021/08/18 07:59:47;;;;;;;7.47;6.67;;;17.20;99.90;;;;;;6318481;22;20158;-86
2021/08/18 08:02:18;;;;;;;7.30;5.53;;;17.10;99.90;;;;;;6320248;22;20153;-88
2021/08/18 08:04:44;;;;;;;8.40;5.53;;;17.10;99.90;;;;;;6321743;22;20402;-88
2021/08/18 08:07:09;;;;;;;6.87;5.30;;;17.30;99.90;;;;;;6321102;22;20463;-84
2021/08/18 08:09:35;;;;;;;9.93;5.57;;;17.50;99.90;;;;;;6314905;22;20360;-86
2021/08/18 08:12:00;;;;;;;8.90;6.57;;;17.60;99.90;;;;;;6320019;22;20166;-85
2021/08/18 08:14:26;;;;;;;6.77;5.13;;;17.70;99.90;;;;;;6321820;22;20172;-87
2021/08/18 08:16:52;;;;;;;8.20;5.67;;;17.40;99.90;;;;;;6321648;22;20170;-86
2021/08/18 08:19:18;;;;;;;10.10;5.60;;;17.50;99.90;;;;;;6316949;22;20296;-92
2021/08/18 08:21:43;;;;;;;6.90;5.47;;;17.30;99.90;;;;;;6316256;22;20169;-88
2021/08/18 08:24:09;;;;;;;7.50;6.00;;;17.20;99.90;;;;;;6319910;22;20166;-85
2021/08/18 08:26:35;;;;;;;6.30;4.57;;;17.30;99.90;;;;;;6318978;22;20165;-86
2021/08/18 08:29:01;;;;;;;6.07;4.80;;;17.30;99.90;;;;;;6318592;22;20302;-88
2021/08/18 08:31:26;;;;;;;8.50;5.10;;;17.30;99.90;;;;;;6320111;22;20200;-88
2021/08/18 08:33:52;;;;;;;6.60;5.00;;;17.40;99.90;;;;;;6320267;22;20671;-89
2021/08/18 08:36:20;;;;;;;8.50;5.17;;;17.50;99.90;;;;;;6319733;22;20193;-88
2021/08/18 08:38:46;;;;;;;7.33;5.37;;;17.30;99.90;;;;;;6318204;22;20161;-89
2021/08/18 08:41:15;;;;;;;6.00;4.57;;;17.10;99.90;;;;;;6320055;22;20415;-87
2021/08/18 08:43:43;;;;;;;5.87;4.77;;;17.00;99.90;;;;;;6319868;22;20161;-85
2021/08/18 08:46:09;;;;;;;5.07;4.53;;;17.20;99.90;;;;;;6319274;22;20399;-86
2021/08/18 08:48:37;;;;;;;5.80;4.80;;;17.30;99.90;;;;;;6320219;22;20162;-87
2021/08/18 08:51:05;;;;;;;6.60;5.10;;;17.40;99.90;;;;;;6320032;22;20465;-89
2021/08/18 08:53:33;;;;;;;6.00;5.10;;;17.40;99.90;;;;;;6320759;22;20408;-88
2021/08/18 08:56:05;;;;;;;6.17;4.63;;;17.30;99.90;;;;;;6319841;22;20439;-89
2021/08/18 08:58:30;;;;;;;7.13;5.50;;;17.30;99.90;;;;;;6318892;22;20506;-88
2021/08/18 09:00:56;;;;;;;7.27;5.93;;;17.20;99.90;;;;;;6292755;22;20483;-90
2021/08/18 09:04:07;;;;;;;9.20;5.87;;;17.20;99.90;;;;;;6319866;22;20157;-87
2021/08/18 09:06:36;;;;;;;6.53;4.93;;;17.20;99.90;;;;;;6295645;22;20230;-87
2021/08/18 09:09:08;;;;;;;8.20;6.10;;;17.20;99.90;;;;;;6320327;22;20392;-87
2021/08/18 09:11:35;;;;;;;8.53;5.57;;;17.60;99.90;;;;;;6319229;22;20471;-87
2021/08/18 09:14:01;;;;;;;6.03;4.67;;;17.70;99.90;;;;;;6319224;22;20404;-88
2021/08/18 09:16:33;;;;;;;6.83;5.83;;;17.70;99.90;;;;;;6321508;22;20493;-87
2021/08/18 09:18:59;;;;;;;6.77;4.00;;;17.60;99.90;;;;;;6320586;22;20168;-87
2021/08/18 09:21:37;;;;;;;5.43;4.40;;;17.50;99.90;;;;;;6320933;22;20396;-87
2021/08/18 09:24:11;;;;;;;5.97;4.27;;;17.50;99.90;;;;;;6320838;22;20157;-85
2021/08/18 09:26:41;;;;;;;6.47;4.90;;;17.50;99.90;;;;;;6294000;22;20453;-85
2021/08/18 09:29:07;;;;;;;5.67;4.70;;;17.40;99.90;;;;;;6322401;22;20385;-84
2021/08/18 09:31:32;;;;;;;6.77;5.10;;;17.20;99.90;;;;;;6319320;22;20910;-86
2021/08/18 09:33:58;;;;;;;6.60;4.50;;;17.30;99.90;;;;;;6318136;22;20166;-86
2021/08/18 09:36:25;;;;;;;5.60;4.40;;;17.30;99.90;;;;;;6320018;22;20201;-86
2021/08/18 09:39:19;;;;;;;5.33;3.63;;;17.40;99.90;;;;;;6318698;22;20165;-86
2021/08/18 09:41:45;;;;;;;5.57;3.87;;;17.60;99.90;;;;;;6293920;22;20420;-87
2021/08/18 09:44:11;;;;;;;4.57;4.00;;;17.80;99.90;;;;;;6318655;22;20724;-87
2021/08/18 09:46:37;;;;;;;5.83;4.00;;;18.00;99.90;;;;;;6318163;22;20172;-89
2021/08/18 09:49:10;;;;;;;5.50;3.30;;;18.00;99.90;;;;;;6320179;22;20199;-88
2021/08/18 09:51:43;;;;;;;4.57;3.80;;;18.20;99.90;;;;;;6318355;22;20437;-86
2021/08/18 09:54:16;;;;;;;5.43;3.63;;;18.10;99.90;;;;;;6297142;22;20399;-87
2021/08/18 09:56:48;;;;;;;4.97;3.53;;;18.00;99.90;;;;;;6321599;22;20462;-89
2021/08/18 09:59:16;;;;;;;4.30;3.63;;;18.10;99.90;;;;;;6305776;22;20392;-88
2021/08/18 10:01:43;;;;;;;3.93;3.53;;;18.30;99.90;;;;;;6328169;22;20400;-90
2021/08/18 10:04:10;;;;;;;4.10;3.30;;;18.30;99.90;;;;;;6323704;22;20396;-88
2021/08/18 10:06:37;;;;;;;3.60;3.27;;;18.60;99.90;;;;;;6318083;22;20392;-88
2021/08/18 10:09:03;;;;;;;3.87;3.33;;;18.70;99.90;;;;;;6320361;22;20398;-87
2021/08/18 10:11:29;;;;;;;3.03;2.73;;;19.00;99.90;;;;;;6319371;22;20384;-88
2021/08/18 10:13:55;;;;;;;3.30;2.70;;;19.60;99.90;;;;;;6319549;22;20400;-87
2021/08/18 10:16:21;;;;;;;3.37;2.97;;;19.80;99.90;;;;;;6320704;22;20193;-87
2021/08/18 10:18:49;;;;;;;3.40;2.30;;;19.40;99.90;;;;;;6320181;22;20392;-88
2021/08/18 10:21:19;;;;;;;2.70;2.50;;;19.50;99.90;;;;;;6317954;22;20392;-87
2021/08/18 10:23:57;;;;;;;3.33;2.80;;;19.60;99.90;;;;;;6293721;22;20725;-92
2021/08/18 10:26:38;;;;;;;3.07;2.30;;;19.50;99.90;;;;;;6293016;22;20486;-88
2021/08/18 10:29:15;;;;;;;2.60;2.40;;;19.40;99.90;;;;;;6296300;22;20415;-87
2021/08/18 10:31:43;;;;;;;2.30;1.93;;;19.30;99.90;;;;;;6318535;22;20445;-87
2021/08/18 10:34:18;;;;;;;2.23;2.00;;;19.40;99.90;;;;;;6295572;22;20586;-87
2021/08/18 10:36:44;;;;;;;2.17;1.97;;;19.60;99.90;;;;;;6294971;22;20466;-86
2021/08/18 10:39:39;;;;;;;2.50;2.30;;;19.60;99.90;;;;;;6295065;22;20838;-86
2021/08/18 10:42:09;;;;;;;2.60;2.40;;;19.30;99.90;;;;;;6288974;22;20487;-87
2021/08/18 10:44:39;;;;;;;2.70;2.50;;;19.80;99.90;;;;;;6320990;22;20400;-88
2021/08/18 10:47:21;;;;;;;1.67;1.57;;;20.10;99.90;;;;;;6294506;22;20911;-90
2021/08/18 10:50:12;;;;;;;1.50;1.40;;;20.10;99.90;;;;;;6320636;22;20999;-87
2021/08/18 10:52:39;;;;;;;2.10;1.90;;;20.70;99.90;;;;;;6295163;22;20447;-88
2021/08/18 10:55:15;;;;;;;2.10;1.90;;;20.90;99.90;;;;;;6296888;22;20514;-91
2021/08/18 10:57:44;;;;;;;2.30;2.10;;;20.20;99.90;;;;;;6293701;22;20815;-88
2021/08/18 11:00:31;;;;;;;2.20;2.00;;;19.90;99.90;;;;;;6293812;22;20398;-86
2021/08/18 11:03:03;;;;;;;2.40;2.03;;;20.00;99.90;;;;;;6319858;22;20730;-87
2021/08/18 11:05:36;;;;;;;2.47;2.13;;;20.00;99.90;;;;;;6297789;22;20857;-87
2021/08/18 11:08:37;;;;;;;2.40;1.80;;;19.70;99.90;;;;;;6296102;22;20404;-86
2021/08/18 11:11:05;;;;;;;2.43;1.83;;;19.50;99.90;;;;;;6319950;22;20388;-85
2021/08/18 11:13:35;;;;;;;1.80;1.70;;;19.40;99.90;;;;;;6293559;22;20400;-85
2021/08/18 11:16:10;;;;;;;2.00;1.90;;;19.30;99.90;;;;;;6294974;22;20439;-86
2021/08/18 11:18:43;;;;;;;2.07;1.50;;;19.20;99.90;;;;;;6295246;22;20404;-87
2021/08/18 11:21:15;;;;;;;1.93;1.70;;;19.70;99.90;;;;;;6318815;22;20596;-86
2021/08/18 11:23:48;;;;;;;1.70;1.60;;;20.30;99.90;;;;;;6320681;22;20420;-85
2021/08/18 11:26:18;;;;;;;2.17;1.63;;;20.90;99.90;;;;;;6318987;22;20870;-86
2021/08/18 11:28:53;;;;;;;1.80;1.70;;;21.00;99.90;;;;;;6294559;22;20589;-87
2021/08/18 11:31:35;;;;;;;1.50;1.40;;;20.80;99.90;;;;;;6321659;22;20395;-86
2021/08/18 11:34:03;;;;;;;1.17;1.07;;;19.90;99.90;;;;;;6319830;22;20415;-86
2021/08/18 11:36:34;;;;;;;2.27;1.40;;;19.60;99.90;;;;;;6319342;22;20436;-85
2021/08/18 11:39:03;;;;;;;1.30;1.20;;;19.50;99.90;;;;;;6321035;22;20722;-85
2021/08/18 11:41:40;;;;;;;1.23;1.13;;;19.60;99.90;;;;;;6295715;22;20488;-88
2021/08/18 11:44:07;;;;;;;1.50;1.40;;;19.90;99.90;;;;;;6318745;22;20901;-86
2021/08/18 11:46:33;;;;;;;1.20;1.10;;;20.20;99.90;;;;;;6321271;22;20777;-86
2021/08/18 11:49:07;;;;;;;1.50;1.40;;;20.00;99.90;;;;;;6321218;22;20940;-85
2021/08/18 11:51:33;;;;;;;1.23;1.13;;;19.80;99.90;;;;;;6295676;22;20384;-85
2021/08/18 11:53:59;;;;;;;1.50;1.40;;;19.70;99.90;;;;;;6315576;22;20404;-85
2021/08/18 11:56:27;;;;;;;1.80;1.67;;;19.80;99.90;;;;;;6317711;22;20512;-85
2021/08/18 11:59:01;;;;;;;1.90;1.20;;;19.90;99.90;;;;;;6318610;22;20169;-84
2021/08/18 12:01:28;;;;;;;1.60;1.17;;;20.10;99.90;;;;;;6318817;22;20474;-84
2021/08/18 12:03:54;;;;;;;1.87;0.97;;;20.10;99.90;;;;;;6320240;22;20396;-84
2021/08/18 12:06:32;;;;;;;0.80;0.80;;;19.90;99.90;;;;;;6319104;22;20396;-84
2021/08/18 12:08:58;;;;;;;4.37;1.40;;;20.20;99.90;;;;;;6318853;22;20752;-85
2021/08/18 12:11:37;;;;;;;1.00;1.00;;;20.90;99.90;;;;;;6317422;22;20765;-84
2021/08/18 12:14:11;;;;;;;3.70;1.03;;;21.40;99.90;;;;;;6318770;22;20380;-86
2021/08/18 12:16:38;;;;;;;3.27;3.00;;;21.10;99.90;;;;;;6319052;22;20533;-86
2021/08/18 12:19:19;;;;;;;3.10;2.43;;;20.80;99.90;;;;;;6319011;22;20479;-85
2021/08/18 12:21:47;;;;;;;3.10;1.70;;;20.10;99.90;;;;;;6292084;22;20400;-85
2021/08/18 12:24:16;;;;;;;13.80;3.30;;;20.80;99.90;;;;;;6316653;22;20384;-85
2021/08/18 12:26:46;;;;;;;3.03;1.67;;;21.50;99.90;;;;;;6316373;22;20396;-86
2021/08/18 12:29:17;;;;;;;11.43;2.70;;;22.00;99.90;;;;;;6319875;22;20448;-86
2021/08/18 12:31:56;;;;;;;43.43;6.20;;;22.50;99.90;;;;;;6319579;22;20469;-85
2021/08/18 12:34:55;;;;;;;52.17;9.13;;;22.30;99.90;;;;;;6293080;22;20509;-86
2021/08/18 12:37:26;;;;;;;30.17;5.80;;;21.50;99.90;;;;;;6316526;22;20476;-85
2021/08/18 12:40:01;;;;;;;22.37;5.20;;;21.10;99.90;;;;;;6310595;22;20403;-85
2021/08/18 12:42:36;;;;;;;1.37;1.27;;;20.80;99.90;;;;;;6318296;22;20384;-86
2021/08/18 12:45:04;;;;;;;3.70;2.17;;;20.60;99.90;;;;;;6321397;22;20836;-86
2021/08/18 12:47:40;;;;;;;2.20;1.50;;;20.50;99.90;;;;;;6294675;22;20395;-86
2021/08/18 12:50:09;;;;;;;2.10;1.53;;;20.20;99.90;;;;;;6294724;22;20391;-86
2021/08/18 12:52:35;;;;;;;1.77;1.67;;;20.10;99.90;;;;;;6322047;22;20407;-86